Time;durP1;ratioP1;P1;durP2;ratioP2;P2;SDS_P1;SDS_P2;PMS_P1;PMS_P2;Temp;Humidity;BMP_temperature;BMP_pressure;BME280_temperature;BME280_humidity;BME280_pressure;Samples;Min_cycle;Max_cycle;Signal;HPM_P1;HPM_P2
2021/12/13 00:00:50;;;;;;;6.50;4.03;;;;;;;20.77;46.78;100850.56;20449454;28;101134;-71
2021/12/13 00:10:54;;;;;;;5.38;3.60;;;;;;;20.76;46.86;100848.91;20450664;28;100221;-70
2021/12/13 00:21:21;;;;;;;5.38;3.70;;;;;;;20.73;46.86;100846.47;20456917;28;100912;-70
2021/12/13 00:31:40;;;;;;;4.90;3.30;;;;;;;20.73;47.17;100837.75;20448362;28;102061;-70
2021/12/13 00:41:43;;;;;;;5.15;3.80;;;;;;;20.70;46.74;100846.66;20444856;28;101089;-70
2021/12/13 00:51:48;;;;;;;4.20;3.27;;;;;;;20.63;47.01;100859.38;20446049;28;99765;-71
2021/12/13 01:01:53;;;;;;;4.32;3.20;;;;;;;20.62;46.75;100862.13;20443774;28;100335;-70
2021/12/13 01:12:01;;;;;;;5.32;3.55;;;;;;;20.56;46.13;100868.63;20446260;28;100725;-70
2021/12/13 01:23:02;;;;;;;4.40;3.13;;;;;;;20.55;46.93;100872.22;20444784;28;101886;-71
2021/12/13 01:32:41;;;;;;;4.80;3.17;;;;;;;20.52;46.97;100871.56;20431599;28;101671;-70
2021/12/13 01:42:42;;;;;;;3.53;2.80;;;;;;;20.49;46.65;100870.00;20447786;28;100928;-70
2021/12/13 01:52:49;;;;;;;4.15;2.78;;;;;;;20.48;46.55;100877.06;20446481;28;100884;-70
2021/12/13 02:02:52;;;;;;;4.53;2.65;;;;;;;20.45;46.81;100879.88;20437750;28;101335;-70
2021/12/13 02:12:59;;;;;;;5.82;2.72;;;;;;;20.44;46.42;100882.63;20437071;28;102087;-70
2021/12/13 02:23:02;;;;;;;3.78;2.60;;;;;;;20.39;46.51;100887.34;20438179;28;100333;-70
2021/12/13 02:33:06;;;;;;;3.73;2.60;;;;;;;20.37;46.73;100897.13;20438924;28;102701;-70
2021/12/13 02:43:10;;;;;;;3.42;2.50;;;;;;;20.36;46.58;100898.06;20441510;28;99277;-70
2021/12/13 02:53:14;;;;;;;3.95;2.85;;;;;;;20.33;46.68;100908.78;20429443;28;99640;-70
2021/12/13 03:03:18;;;;;;;2.70;2.38;;;;;;;20.30;46.58;100894.06;20435245;28;101394;-70
2021/12/13 03:13:20;;;;;;;3.75;2.50;;;;;;;20.30;46.59;100886.16;20436920;28;101134;-70
2021/12/13 03:23:35;;;;;;;4.60;2.53;;;;;;;20.27;46.59;100884.56;20441000;28;101478;-70
2021/12/13 03:34:10;;;;;;;4.60;2.40;;;;;;;20.26;46.36;100890.78;20445476;28;101931;-71
2021/12/13 03:44:19;;;;;;;2.95;2.20;;;;;;;20.26;46.65;100893.41;20432837;28;102835;-70
2021/12/13 03:54:43;;;;;;;3.10;2.40;;;;;;;20.28;46.82;100891.50;20431519;28;100563;-70
2021/12/13 04:04:52;;;;;;;3.58;2.38;;;;;;;20.26;45.95;100897.81;20398317;28;102698;-70
2021/12/13 04:15:01;;;;;;;2.63;2.08;;;;;;;20.25;46.07;100911.91;20435693;28;101792;-69
2021/12/13 04:25:15;;;;;;;4.03;2.63;;;;;;;20.24;46.77;100913.69;20445657;28;98327;-69
2021/12/13 04:35:18;;;;;;;2.53;2.33;;;;;;;20.21;45.86;100919.13;20451494;28;99141;-69
2021/12/13 04:45:21;;;;;;;2.88;2.30;;;;;;;20.23;46.34;100922.53;20449561;28;99617;-69
2021/12/13 04:55:32;;;;;;;3.28;2.47;;;;;;;20.23;46.71;100911.19;20445397;28;101068;-70
2021/12/13 05:05:36;;;;;;;4.90;2.10;;;;;;;20.22;46.17;100923.47;20449276;28;99397;-68
2021/12/13 05:15:43;;;;;;;3.17;2.30;;;;;;;20.34;46.61;100940.25;20447488;28;104171;-68
2021/12/13 05:25:55;;;;;;;4.32;2.28;;;;;;;20.54;46.76;100964.41;20437664;28;101956;-68
2021/12/13 05:35:59;;;;;;;3.95;2.47;;;;;;;20.68;47.57;100971.38;20442552;28;98890;-69
2021/12/13 05:46:04;;;;;;;34.47;14.32;;;;;;;20.78;47.67;100988.28;20450071;28;101425;-73
2021/12/13 05:56:12;;;;;;;31.85;13.48;;;;;;;20.90;46.98;100981.38;20420432;28;102658;-68
2021/12/13 06:06:18;;;;;;;32.72;15.55;;;;;;;20.89;46.33;100984.94;20407821;28;105115;-68
2021/12/13 06:16:39;;;;;;;16.85;9.57;;;;;;;18.77;37.85;101003.97;20420527;28;101012;-75
2021/12/13 06:26:41;;;;;;;13.27;7.57;;;;;;;19.41;38.04;101014.28;20432943;28;101475;-76
2021/12/13 06:36:46;;;;;;;12.02;6.20;;;;;;;19.91;39.72;101012.19;20445189;28;98616;-75
2021/12/13 06:46:54;;;;;;;15.52;6.20;;;;;;;20.19;41.26;101012.22;20460653;28;99450;-76
2021/12/13 06:56:59;;;;;;;9.80;5.28;;;;;;;20.36;41.99;101019.91;20462661;28;101362;-74
2021/12/13 07:07:12;;;;;;;10.13;5.30;;;;;;;20.53;42.66;101028.47;20461971;28;99214;-74
2021/12/13 07:17:27;;;;;;;7.13;4.88;;;;;;;20.68;43.38;101029.25;20464360;28;100611;-75
2021/12/13 07:27:34;;;;;;;9.00;5.20;;;;;;;20.74;42.78;101028.94;20459169;28;100683;-74
2021/12/13 07:37:39;;;;;;;13.05;4.93;;;;;;;20.82;42.69;101037.13;20463216;28;100575;-75
2021/12/13 07:47:42;;;;;;;8.20;5.05;;;;;;;20.89;42.73;101042.84;20465927;28;101282;-74
2021/12/13 07:57:45;;;;;;;6.85;4.15;;;;;;;20.93;42.54;101055.72;20465919;28;101580;-74
2021/12/13 08:07:54;;;;;;;6.93;4.10;;;;;;;21.00;42.51;101052.69;20459977;28;102293;-74
2021/12/13 08:18:01;;;;;;;16.85;4.90;;;;;;;20.99;42.50;101065.00;20453670;28;100418;-74
2021/12/13 08:28:05;;;;;;;9.85;4.25;;;;;;;21.11;42.73;101072.06;20473250;28;100820;-75
2021/12/13 08:38:06;;;;;;;15.07;4.63;;;;;;;21.18;42.70;101092.72;20468677;28;100925;-77
2021/12/13 08:48:16;;;;;;;8.82;4.32;;;;;;;21.22;42.96;101102.97;20477148;28;97583;-78
2021/12/13 08:58:20;;;;;;;5.38;3.65;;;;;;;21.30;42.48;101101.63;20466368;28;97575;-76
2021/12/13 09:08:41;;;;;;;7.32;3.50;;;;;;;21.37;43.22;101092.38;20463386;28;101690;-78
2021/12/13 09:18:42;;;;;;;6.80;3.60;;;;;;;21.42;43.51;101098.16;20472466;28;99830;-80
2021/12/13 09:28:57;;;;;;;8.52;3.70;;;;;;;21.48;43.27;101081.09;20494411;28;99763;-75
2021/12/13 09:39:02;;;;;;;9.35;3.75;;;;;;;21.50;42.68;101073.94;20477841;28;101340;-76
2021/12/13 09:49:21;;;;;;;10.75;3.78;;;;;;;21.59;42.90;101074.19;20466163;28;101864;-73
2021/12/13 09:59:48;;;;;;;6.20;3.78;;;;;;;21.65;43.76;101048.38;20486114;28;104049;-73
2021/12/13 10:09:55;;;;;;;6.07;3.53;;;;;;;21.70;43.78;101047.09;20467460;28;100266;-75
2021/12/13 10:19:59;;;;;;;9.90;3.75;;;;;;;;;;20470592;28;102143;-73
2021/12/13 10:30:05;;;;;;;12.38;3.40;;;;;;;21.78;43.69;101035.19;20478060;28;98640;-76
2021/12/13 10:40:21;;;;;;;5.97;3.40;;;;;;;21.84;44.15;101038.22;20463717;28;99237;-75
2021/12/13 10:50:31;;;;;;;6.55;3.42;;;;;;;21.93;44.09;101026.19;20473763;28;98248;-77
2021/12/13 11:00:34;;;;;;;4.75;3.20;;;;;;;22.02;43.60;101017.63;20463347;28;101370;-77
2021/12/13 11:10:50;;;;;;;4.97;3.13;;;;;;;22.12;43.79;101016.97;20470912;28;101938;-76
2021/12/13 11:20:51;;;;;;;4.72;3.22;;;;;;;22.16;43.35;101013.16;20458422;28;100511;-77
2021/12/13 11:30:53;;;;;;;7.40;3.55;;;;;;;22.23;43.13;101019.69;20464001;28;103120;-80
2021/12/13 11:41:23;;;;;;;8.50;3.35;;;;;;;22.31;43.52;101019.97;20470266;28;101831;-76
2021/12/13 11:51:43;;;;;;;6.25;3.03;;;;;;;22.43;43.31;101020.06;20481749;28;98744;-75
2021/12/13 12:02:10;;;;;;;4.93;2.90;;;;;;;22.53;43.57;101016.66;20467965;28;100831;-75
2021/12/13 12:12:48;;;;;;;4.28;3.00;;;;;;;22.66;43.49;101011.28;20470781;28;101072;-76
2021/12/13 12:23:00;;;;;;;5.60;3.20;;;;;;;22.76;42.81;101019.38;20475362;28;98525;-76
2021/12/13 12:33:10;;;;;;;8.90;3.63;;;;;;;22.81;43.36;101013.75;20462734;28;101022;-76
2021/12/13 12:43:20;;;;;;;16.13;4.55;;;;;;;22.90;44.93;101007.81;20466424;28;101614;-76
2021/12/13 12:53:44;;;;;;;9.50;4.25;;;;;;;22.93;44.92;101004.09;20473391;28;99131;-76
2021/12/13 13:03:48;;;;;;;10.38;3.80;;;;;;;22.91;44.53;101004.22;20468208;28;100599;-75
2021/12/13 13:13:49;;;;;;;6.45;3.28;;;;;;;22.90;44.14;101013.09;20471682;28;98222;-75
2021/12/13 13:24:00;;;;;;;8.60;3.83;;;;;;;22.85;44.22;101023.13;20475976;28;101667;-75
2021/12/13 13:34:13;;;;;;;4.80;2.95;;;;;;;22.83;44.12;101040.91;20463788;28;99772;-76
2021/12/13 13:44:19;;;;;;;;;;;;;;;22.71;44.19;101046.09;20474643;28;101618;-78
2021/12/13 13:54:19;;;;;;;7.45;3.20;;;;;;;22.61;43.61;101045.13;20479819;28;98561;-76
2021/12/13 14:04:34;;;;;;;6.60;3.47;;;;;;;22.53;43.62;101050.97;20469475;28;104868;-79
2021/12/13 14:14:48;;;;;;;9.18;3.30;;;;;;;22.42;43.43;101057.97;20461164;28;101242;-76
2021/12/13 14:24:51;;;;;;;7.20;3.15;;;;;;;22.30;43.62;101055.22;20482876;28;98450;-77
2021/12/13 14:34:53;;;;;;;;;;;;;;;22.19;43.69;101065.69;20472869;28;100148;-78
2021/12/13 14:45:01;;;;;;;7.33;3.17;;;;;;;22.15;43.57;101070.34;20463566;28;99385;-75
2021/12/13 14:55:08;;;;;;;5.03;2.78;;;;;;;22.03;43.70;101074.72;20471062;28;101829;-74
2021/12/13 15:05:17;;;;;;;4.07;2.80;;;;;;;21.96;43.84;101073.44;20470326;28;101893;-74
2021/12/13 15:15:23;;;;;;;9.55;3.10;;;;;;;21.88;44.11;101094.22;20474610;28;97733;-75
2021/12/13 15:25:35;;;;;;;8.23;2.92;;;;;;;21.80;44.19;101110.56;20455636;28;100804;-74
2021/12/13 15:35:40;;;;;;;6.05;2.90;;;;;;;21.74;44.29;101122.38;20459460;28;102906;-77
2021/12/13 15:45:46;;;;;;;4.53;2.80;;;;;;;21.68;44.37;101138.63;20448974;28;99231;-76
2021/12/13 15:55:53;;;;;;;5.00;2.80;;;;;;;21.67;44.39;101136.09;20465865;28;98144;-80
2021/12/13 16:05:58;;;;;;;4.53;2.90;;;;;;;21.58;44.36;101133.13;20478499;28;100946;-80
2021/12/13 16:15:59;;;;;;;4.45;2.65;;;;;;;21.52;44.36;101140.53;20483444;28;98822;-79
2021/12/13 16:26:05;;;;;;;5.40;3.30;;;;;;;21.45;43.99;101145.41;20498514;28;100095;-78
2021/12/13 16:36:09;;;;;;;5.53;3.05;;;;;;;21.35;44.39;101157.47;20504223;28;98150;-79
2021/12/13 16:46:13;;;;;;;7.60;3.70;;;;;;;21.30;43.94;101163.06;20484488;28;102568;-79
2021/12/13 16:56:18;;;;;;;7.43;3.70;;;;;;;21.32;43.73;101173.50;20486347;28;98065;-78
2021/12/13 17:06:24;;;;;;;16.23;4.57;;;;;;;21.52;46.54;101169.53;20468293;28;103969;-78
2021/12/13 17:16:31;;;;;;;10.05;4.18;;;;;;;21.62;47.74;101185.59;20465906;28;99261;-80
2021/12/13 17:26:39;;;;;;;14.05;4.43;;;;;;;21.67;47.64;101178.25;20465891;28;101314;-78
2021/12/13 17:36:45;;;;;;;12.75;4.00;;;;;;;21.69;48.59;101181.63;20468824;28;104053;-80
2021/12/13 17:46:48;;;;;;;8.30;4.13;;;;;;;21.71;48.71;101188.47;20475178;28;100882;-80
2021/12/13 17:56:52;;;;;;;12.23;4.17;;;;;;;21.67;48.25;101192.28;20482741;28;99216;-81
2021/12/13 18:06:57;;;;;;;13.38;4.57;;;;;;;21.65;48.40;101191.53;20472840;28;102006;-80
2021/12/13 18:17:02;;;;;;;10.60;5.00;;;;;;;21.65;48.48;101198.59;20474982;28;97932;-80
2021/12/13 18:27:04;;;;;;;13.27;4.63;;;;;;;21.59;48.02;101205.09;20475906;28;102456;-79
2021/12/13 18:37:19;;;;;;;12.82;5.05;;;;;;;21.61;48.67;101212.94;20473678;28;99762;-77
2021/12/13 18:47:26;;;;;;;13.68;4.93;;;;;;;21.67;49.03;101216.00;20449999;28;99139;-76
2021/12/13 18:57:38;;;;;;;11.27;4.95;;;;;;;21.66;49.17;101230.13;20475624;28;99136;-79
2021/12/13 19:07:47;;;;;;;11.23;5.18;;;;;;;21.68;49.15;101245.81;20477476;28;99526;-76
2021/12/13 19:17:55;;;;;;;11.35;5.10;;;;;;;21.66;49.05;101245.94;20489041;28;97765;-76
2021/12/13 19:28:00;;;;;;;9.25;5.15;;;;;;;21.63;48.82;101248.78;20480104;28;99206;-81
2021/12/13 19:38:05;;;;;;;11.60;6.03;;;;;;;21.63;49.20;101254.06;20476870;28;98681;-81
2021/12/13 19:48:23;;;;;;;12.80;6.15;;;;;;;21.64;48.48;101258.38;20469114;28;101306;-81
2021/12/13 19:58:33;;;;;;;13.70;7.10;;;;;;;21.62;48.02;101260.25;20469707;28;97511;-81
2021/12/13 20:08:47;;;;;;;16.98;9.02;;;;;;;21.42;46.00;101256.25;20483088;28;100546;-80
2021/12/13 20:19:05;;;;;;;15.52;8.85;;;;;;;21.52;46.65;101249.44;20496885;28;101854;-79
2021/12/13 20:29:11;;;;;;;14.70;8.00;;;;;;;21.52;47.09;101259.13;20482693;28;100185;-77
2021/12/13 20:39:35;;;;;;;14.27;8.00;;;;;;;21.49;46.74;101259.34;20494929;28;97528;-79
2021/12/13 20:49:41;;;;;;;19.80;7.70;;;;;;;21.46;46.92;101257.75;20489730;28;98077;-82
2021/12/13 20:59:48;;;;;;;16.10;8.25;;;;;;;21.38;47.45;101255.59;20477401;28;102104;-81
2021/12/13 21:10:17;;;;;;;14.45;7.70;;;;;;;21.34;47.82;101263.81;20485823;28;100240;-82
2021/12/13 21:20:25;;;;;;;12.75;7.47;;;;;;;21.31;48.40;101264.84;20491568;28;99176;-82
2021/12/13 21:30:37;;;;;;;11.60;7.15;;;;;;;21.28;48.54;101271.16;20490709;28;99020;-83
2021/12/13 21:40:49;;;;;;;16.15;7.90;;;;;;;21.23;48.64;101277.66;20488814;28;98191;-81
2021/12/13 21:51:01;;;;;;;10.50;6.73;;;;;;;21.22;48.54;101291.78;20483245;28;97482;-81
2021/12/13 22:01:21;;;;;;;10.85;7.10;;;;;;;21.15;48.47;101291.31;20489081;28;99452;-81
2021/12/13 22:11:29;;;;;;;11.70;6.45;;;;;;;21.11;48.34;101303.81;20476293;28;101469;-81
2021/12/13 22:21:32;;;;;;;13.88;6.90;;;;;;;21.07;48.44;101299.69;20487456;28;99840;-80
2021/12/13 22:31:38;;;;;;;;;;;;;;;21.03;48.53;101303.47;20491674;28;100562;-80
2021/12/13 22:41:45;;;;;;;11.23;7.03;;;;;;;20.99;48.34;101294.06;20481637;28;99482;-81
2021/12/13 22:51:53;;;;;;;11.00;6.68;;;;;;;20.96;48.77;101289.00;20474796;28;101079;-81
2021/12/13 23:02:00;;;;;;;10.75;7.00;;;;;;;20.91;48.49;101291.03;20481620;28;100507;-81
2021/12/13 23:22:33;;;;;;;11.40;6.28;;;;;;;20.84;48.53;101264.28;20483326;28;100629;-80
2021/12/13 23:32:37;;;;;;;10.43;6.30;;;;;;;20.79;48.60;101271.63;20480998;28;98468;-82
2021/12/13 23:53:04;;;;;;;9.40;5.97;;;;;;;20.74;48.76;101278.94;20478054;28;101803;-82
